APG228 RPVE-RPLL
Flight info
| Callsign | APG228 |
|---|---|
| Flight time | 0h 37m |
| Altitude | 24000 |
| Route | N0450F240 DCT MINOR B473 LAIYA DCT |
| Aircraft | A320/M-SDE3FGIRWY/LB1D1 |
Departure
| Time | 2026-04-30 09:07 |
|---|---|
| Airport | Godofredo P. Ramos Airport (RPVE) |
Arrival
| Time | 2026-04-30 09:45 |
|---|---|
| Airport | Ninoy Aquino International Airport (RPLL) |
| Time | Latitude | Longitude | Altitude | Speed | Heading |
|---|---|---|---|---|---|
| 2026-04-30 08:35 | 11.92575 | 121.96273 | 26 ft | 0 kts | 63° |
| 2026-04-30 08:54 | 11.92571 | 121.96265 | 28 ft | 2 kts | 61° |
| 2026-04-30 08:55 | 11.92562 | 121.96252 | 26 ft | 2 kts | 37° |
| 2026-04-30 08:55 | 11.92548 | 121.96244 | 26 ft | 2 kts | 4° |
| 2026-04-30 08:55 | 11.92532 | 121.96245 | 26 ft | 2 kts | 330° |
| 2026-04-30 08:55 | 11.92520 | 121.96254 | 26 ft | 0 kts | 326° |
| 2026-04-30 08:59 | 11.92541 | 121.96242 | 26 ft | 12 kts | 332° |
| 2026-04-30 09:00 | 11.92609 | 121.96206 | 25 ft | 10 kts | 333° |
| 2026-04-30 09:00 | 11.92671 | 121.96189 | 26 ft | 8 kts | 335° |
| 2026-04-30 09:00 | 11.92718 | 121.96164 | 27 ft | 7 kts | 332° |
| 2026-04-30 09:00 | 11.92759 | 121.96142 | 28 ft | 6 kts | 333° |
| 2026-04-30 09:01 | 11.92794 | 121.96123 | 26 ft | 5 kts | 324° |
| 2026-04-30 09:01 | 11.92778 | 121.96039 | 27 ft | 20 kts | 239° |
| 2026-04-30 09:01 | 11.92716 | 121.95917 | 26 ft | 19 kts | 243° |
| 2026-04-30 09:01 | 11.92660 | 121.95803 | 26 ft | 17 kts | 243° |
| 2026-04-30 09:02 | 11.92559 | 121.95605 | 25 ft | 15 kts | 243° |
| 2026-04-30 09:02 | 11.92513 | 121.95512 | 24 ft | 14 kts | 243° |
| 2026-04-30 09:02 | 11.92470 | 121.95427 | 25 ft | 13 kts | 241° |
| 2026-04-30 09:03 | 11.92432 | 121.95352 | 25 ft | 11 kts | 243° |
| 2026-04-30 09:03 | 11.92397 | 121.95283 | 24 ft | 11 kts | 243° |
| 2026-04-30 09:03 | 11.92366 | 121.95219 | 25 ft | 9 kts | 243° |
| 2026-04-30 09:03 | 11.92340 | 121.95165 | 27 ft | 7 kts | 244° |
| 2026-04-30 09:04 | 11.92320 | 121.95125 | 26 ft | 5 kts | 243° |
| 2026-04-30 09:04 | 11.92305 | 121.95095 | 29 ft | 7 kts | 243° |
| 2026-04-30 09:04 | 11.92265 | 121.95053 | 27 ft | 8 kts | 212° |
| 2026-04-30 09:04 | 11.92236 | 121.95018 | 27 ft | 4 kts | 278° |
| 2026-04-30 09:05 | 11.92252 | 121.95015 | 27 ft | 3 kts | 11° |
| 2026-04-30 09:05 | 11.92277 | 121.95046 | 26 ft | 7 kts | 77° |
| 2026-04-30 09:05 | 11.92291 | 121.95069 | 26 ft | 0 kts | 62° |
| 2026-04-30 09:06 | 11.92293 | 121.95073 | 26 ft | 4 kts | 62° |
| 2026-04-30 09:06 | 11.92415 | 121.95314 | 26 ft | 78 kts | 63° |
| 2026-04-30 09:06 | 11.92767 | 121.96018 | 29 ft | 141 kts | 63° |
| 2026-04-30 09:07 | 11.93252 | 121.96970 | 526 ft | 152 kts | 62° |
| 2026-04-30 09:07 | 11.93799 | 121.97924 | 1177 ft | 159 kts | 60° |
| 2026-04-30 09:07 | 11.94345 | 121.98973 | 1702 ft | 176 kts | 64° |
| 2026-04-30 09:07 | 11.94914 | 122.00143 | 2181 ft | 189 kts | 65° |
| 2026-04-30 09:08 | 11.95511 | 122.01380 | 2671 ft | 199 kts | 65° |
| 2026-04-30 09:08 | 11.96239 | 122.02619 | 3163 ft | 211 kts | 50° |
| 2026-04-30 09:08 | 11.97479 | 122.03525 | 3640 ft | 230 kts | 30° |
| 2026-04-30 09:08 | 11.98967 | 122.04286 | 4137 ft | 248 kts | 29° |
| 2026-04-30 09:09 | 12.00563 | 122.05092 | 4649 ft | 262 kts | 29° |
| 2026-04-30 09:09 | 12.02213 | 122.05923 | 5116 ft | 266 kts | 28° |
| 2026-04-30 09:09 | 12.03885 | 122.06762 | 5605 ft | 269 kts | 28° |
| 2026-04-30 09:09 | 12.05572 | 122.07609 | 6087 ft | 271 kts | 28° |
| 2026-04-30 09:10 | 12.07270 | 122.08464 | 6557 ft | 273 kts | 28° |
| 2026-04-30 09:10 | 12.08981 | 122.09328 | 7019 ft | 276 kts | 28° |
| 2026-04-30 09:10 | 12.10707 | 122.10203 | 7492 ft | 278 kts | 28° |
| 2026-04-30 09:10 | 12.12447 | 122.11088 | 7972 ft | 280 kts | 28° |
| 2026-04-30 09:11 | 12.14200 | 122.11978 | 8455 ft | 283 kts | 28° |
| 2026-04-30 09:11 | 12.15970 | 122.12877 | 8948 ft | 285 kts | 28° |
| 2026-04-30 09:11 | 12.17757 | 122.13781 | 9448 ft | 288 kts | 28° |
| 2026-04-30 09:11 | 12.19586 | 122.14705 | 9940 ft | 290 kts | 28° |
| 2026-04-30 09:12 | 12.21404 | 122.15625 | 10403 ft | 293 kts | 28° |
| 2026-04-30 09:12 | 12.23269 | 122.16571 | 10873 ft | 306 kts | 28° |
| 2026-04-30 09:12 | 12.25209 | 122.17554 | 11349 ft | 317 kts | 28° |
| 2026-04-30 09:12 | 12.27220 | 122.18575 | 11833 ft | 328 kts | 28° |
| 2026-04-30 09:13 | 12.29293 | 122.19628 | 12321 ft | 337 kts | 28° |
| 2026-04-30 09:13 | 12.31425 | 122.20707 | 12816 ft | 346 kts | 27° |
| 2026-04-30 09:13 | 12.33727 | 122.21536 | 13321 ft | 357 kts | 14° |
| 2026-04-30 09:13 | 12.36225 | 122.21789 | 13816 ft | 367 kts | 0° |
| 2026-04-30 09:14 | 12.38776 | 122.21409 | 14269 ft | 376 kts | 346° |
| 2026-04-30 09:14 | 12.41222 | 122.20379 | 14730 ft | 385 kts | 332° |
| 2026-04-30 09:14 | 12.43475 | 122.18854 | 15192 ft | 391 kts | 327° |
| 2026-04-30 09:14 | 12.45739 | 122.17274 | 15660 ft | 396 kts | 327° |
| 2026-04-30 09:15 | 12.48028 | 122.15679 | 16140 ft | 400 kts | 327° |
| 2026-04-30 09:15 | 12.50342 | 122.14071 | 16626 ft | 404 kts | 327° |
| 2026-04-30 09:15 | 12.52679 | 122.12448 | 17122 ft | 407 kts | 327° |
| 2026-04-30 09:15 | 12.55033 | 122.10813 | 17621 ft | 411 kts | 327° |
| 2026-04-30 09:16 | 12.57409 | 122.09163 | 18129 ft | 414 kts | 327° |
| 2026-04-30 09:16 | 12.59802 | 122.07501 | 18580 ft | 417 kts | 327° |
| 2026-04-30 09:16 | 12.62209 | 122.05829 | 19025 ft | 420 kts | 327° |
| 2026-04-30 09:16 | 12.64632 | 122.04142 | 19478 ft | 422 kts | 327° |
| 2026-04-30 09:17 | 12.67067 | 122.02445 | 19939 ft | 424 kts | 327° |
| 2026-04-30 09:17 | 12.69515 | 122.00742 | 20402 ft | 426 kts | 327° |
| 2026-04-30 09:17 | 12.71970 | 121.99034 | 20884 ft | 427 kts | 327° |
| 2026-04-30 09:17 | 12.74433 | 121.97322 | 21366 ft | 429 kts | 327° |
| 2026-04-30 09:18 | 12.76903 | 121.95603 | 21856 ft | 430 kts | 327° |
| 2026-04-30 09:18 | 12.79376 | 121.93883 | 22353 ft | 430 kts | 326° |
| 2026-04-30 09:18 | 12.81852 | 121.92158 | 22864 ft | 431 kts | 326° |
| 2026-04-30 09:18 | 12.84328 | 121.90430 | 23378 ft | 431 kts | 326° |
| 2026-04-30 09:19 | 12.86810 | 121.88697 | 23749 ft | 433 kts | 326° |
| 2026-04-30 09:19 | 12.89326 | 121.86942 | 23870 ft | 442 kts | 326° |
| 2026-04-30 09:19 | 12.91936 | 121.85122 | 23910 ft | 453 kts | 326° |
| 2026-04-30 09:19 | 12.94567 | 121.83290 | 23908 ft | 462 kts | 326° |
| 2026-04-30 09:20 | 12.97251 | 121.81420 | 23907 ft | 471 kts | 326° |
| 2026-04-30 09:20 | 12.99980 | 121.79516 | 23906 ft | 478 kts | 326° |
| 2026-04-30 09:20 | 13.02744 | 121.77586 | 23908 ft | 484 kts | 326° |
| 2026-04-30 09:20 | 13.05545 | 121.75631 | 23908 ft | 489 kts | 326° |
| 2026-04-30 09:21 | 13.08373 | 121.73656 | 23905 ft | 494 kts | 326° |
| 2026-04-30 09:21 | 13.11222 | 121.71664 | 23907 ft | 497 kts | 326° |
| 2026-04-30 09:21 | 13.14088 | 121.69656 | 23909 ft | 500 kts | 326° |
| 2026-04-30 09:21 | 13.16965 | 121.67643 | 23910 ft | 502 kts | 326° |
| 2026-04-30 09:22 | 13.19853 | 121.65624 | 23911 ft | 503 kts | 326° |
| 2026-04-30 09:22 | 13.22744 | 121.63601 | 23910 ft | 504 kts | 326° |
| 2026-04-30 09:22 | 13.25639 | 121.61573 | 23910 ft | 504 kts | 326° |
| 2026-04-30 09:22 | 13.28540 | 121.59543 | 23908 ft | 505 kts | 326° |
| 2026-04-30 09:23 | 13.31442 | 121.57513 | 23911 ft | 505 kts | 326° |
| 2026-04-30 09:23 | 13.34351 | 121.55475 | 23912 ft | 506 kts | 326° |
| 2026-04-30 09:23 | 13.37255 | 121.53438 | 23914 ft | 506 kts | 326° |
| 2026-04-30 09:23 | 13.40159 | 121.51399 | 23912 ft | 505 kts | 326° |
| 2026-04-30 09:24 | 13.43062 | 121.49364 | 23912 ft | 505 kts | 326° |
| 2026-04-30 09:24 | 13.45953 | 121.47340 | 23813 ft | 497 kts | 326° |
| 2026-04-30 09:24 | 13.48764 | 121.45374 | 23357 ft | 481 kts | 326° |
| 2026-04-30 09:24 | 13.51486 | 121.43468 | 22845 ft | 468 kts | 326° |
| 2026-04-30 09:25 | 13.54142 | 121.41603 | 22340 ft | 457 kts | 326° |
| 2026-04-30 09:25 | 13.56743 | 121.39770 | 21832 ft | 449 kts | 326° |
| 2026-04-30 09:25 | 13.59285 | 121.37955 | 21352 ft | 441 kts | 325° |
| 2026-04-30 09:25 | 13.61759 | 121.36136 | 20870 ft | 434 kts | 324° |
| 2026-04-30 09:26 | 13.64185 | 121.34316 | 20395 ft | 429 kts | 324° |
| 2026-04-30 09:26 | 13.66571 | 121.32509 | 19929 ft | 424 kts | 324° |
| 2026-04-30 09:26 | 13.68934 | 121.30720 | 19471 ft | 420 kts | 324° |
| 2026-04-30 09:26 | 13.71281 | 121.28957 | 19016 ft | 416 kts | 324° |
| 2026-04-30 09:27 | 13.73611 | 121.27217 | 18569 ft | 412 kts | 325° |
| 2026-04-30 09:27 | 13.75923 | 121.25495 | 18120 ft | 409 kts | 325° |
| 2026-04-30 09:27 | 13.78214 | 121.23790 | 17613 ft | 405 kts | 325° |
| 2026-04-30 09:27 | 13.80488 | 121.22095 | 17113 ft | 402 kts | 325° |
| 2026-04-30 09:28 | 13.82773 | 121.20392 | 16615 ft | 399 kts | 325° |
| 2026-04-30 09:28 | 13.85012 | 121.18723 | 16133 ft | 396 kts | 325° |
| 2026-04-30 09:28 | 13.87234 | 121.17066 | 15655 ft | 393 kts | 325° |
| 2026-04-30 09:28 | 13.89439 | 121.15418 | 15183 ft | 390 kts | 325° |
| 2026-04-30 09:29 | 13.91628 | 121.13783 | 14725 ft | 388 kts | 325° |
| 2026-04-30 09:29 | 13.93788 | 121.12171 | 14472 ft | 379 kts | 325° |
| 2026-04-30 09:29 | 13.95897 | 121.10596 | 14242 ft | 370 kts | 325° |
| 2026-04-30 09:29 | 13.97952 | 121.09056 | 14021 ft | 361 kts | 325° |
| 2026-04-30 09:30 | 13.99919 | 121.07486 | 13794 ft | 354 kts | 318° |
| 2026-04-30 09:30 | 14.01509 | 121.05583 | 13554 ft | 349 kts | 305° |
| 2026-04-30 09:30 | 14.02849 | 121.03529 | 13298 ft | 342 kts | 305° |
| 2026-04-30 09:30 | 14.04168 | 121.01516 | 13049 ft | 336 kts | 305° |
| 2026-04-30 09:31 | 14.05462 | 120.99542 | 12799 ft | 330 kts | 305° |
| 2026-04-30 09:31 | 14.06737 | 120.97599 | 12552 ft | 324 kts | 305° |
| 2026-04-30 09:31 | 14.07990 | 120.95696 | 12308 ft | 319 kts | 305° |
| 2026-04-30 09:31 | 14.09225 | 120.93815 | 12062 ft | 314 kts | 305° |
| 2026-04-30 09:32 | 14.10438 | 120.91966 | 11821 ft | 309 kts | 305° |
| 2026-04-30 09:32 | 14.11631 | 120.90146 | 11580 ft | 304 kts | 305° |
| 2026-04-30 09:32 | 14.12808 | 120.88354 | 11339 ft | 299 kts | 305° |
| 2026-04-30 09:32 | 14.13964 | 120.86589 | 11098 ft | 295 kts | 305° |
| 2026-04-30 09:33 | 14.15102 | 120.84847 | 10863 ft | 291 kts | 305° |
| 2026-04-30 09:33 | 14.16222 | 120.83133 | 10646 ft | 286 kts | 305° |
| 2026-04-30 09:33 | 14.17325 | 120.81445 | 10411 ft | 282 kts | 305° |
| 2026-04-30 09:33 | 14.18414 | 120.79783 | 10176 ft | 277 kts | 305° |
| 2026-04-30 09:34 | 14.19484 | 120.78151 | 9949 ft | 273 kts | 305° |
| 2026-04-30 09:34 | 14.20661 | 120.76652 | 9722 ft | 267 kts | 317° |
| 2026-04-30 09:34 | 14.22085 | 120.75470 | 9461 ft | 260 kts | 330° |
| 2026-04-30 09:34 | 14.23634 | 120.74552 | 9216 ft | 255 kts | 333° |
| 2026-04-30 09:35 | 14.25161 | 120.73659 | 8967 ft | 250 kts | 333° |
| 2026-04-30 09:35 | 14.26661 | 120.72779 | 8717 ft | 246 kts | 333° |
| 2026-04-30 09:35 | 14.28139 | 120.71912 | 8471 ft | 242 kts | 333° |
| 2026-04-30 09:35 | 14.29612 | 120.71049 | 8224 ft | 239 kts | 333° |
| 2026-04-30 09:36 | 14.31097 | 120.70426 | 7980 ft | 230 kts | 356° |
| 2026-04-30 09:36 | 14.32654 | 120.70604 | 7738 ft | 220 kts | 25° |
| 2026-04-30 09:36 | 14.33848 | 120.71486 | 7534 ft | 207 kts | 52° |
| 2026-04-30 09:36 | 14.34595 | 120.72718 | 7284 ft | 199 kts | 61° |
| 2026-04-30 09:37 | 14.35269 | 120.73934 | 7037 ft | 191 kts | 61° |
| 2026-04-30 09:37 | 14.35912 | 120.75091 | 6811 ft | 181 kts | 60° |
| 2026-04-30 09:37 | 14.36518 | 120.76178 | 6586 ft | 169 kts | 60° |
| 2026-04-30 09:37 | 14.37090 | 120.77205 | 6351 ft | 161 kts | 60° |
| 2026-04-30 09:38 | 14.37456 | 120.77860 | 6188 ft | 158 kts | 60° |
| 2026-04-30 09:38 | 14.37989 | 120.78818 | 5944 ft | 155 kts | 60° |
| 2026-04-30 09:38 | 14.38538 | 120.79802 | 5702 ft | 158 kts | 60° |
| 2026-04-30 09:38 | 14.39085 | 120.80785 | 5456 ft | 158 kts | 61° |
| 2026-04-30 09:39 | 14.39631 | 120.81764 | 5216 ft | 158 kts | 60° |
| 2026-04-30 09:39 | 14.40175 | 120.82741 | 4977 ft | 157 kts | 60° |
| 2026-04-30 09:39 | 14.40718 | 120.83715 | 4736 ft | 156 kts | 60° |
| 2026-04-30 09:39 | 14.41260 | 120.84688 | 4496 ft | 157 kts | 60° |
| 2026-04-30 09:40 | 14.41796 | 120.85651 | 4253 ft | 151 kts | 61° |
| 2026-04-30 09:40 | 14.42305 | 120.86566 | 4003 ft | 145 kts | 62° |
| 2026-04-30 09:40 | 14.42804 | 120.87461 | 3765 ft | 143 kts | 62° |
| 2026-04-30 09:40 | 14.43297 | 120.88348 | 3531 ft | 142 kts | 62° |
| 2026-04-30 09:41 | 14.43788 | 120.89228 | 3285 ft | 141 kts | 62° |
| 2026-04-30 09:41 | 14.44284 | 120.90120 | 3048 ft | 142 kts | 62° |
| 2026-04-30 09:41 | 14.44767 | 120.90988 | 2792 ft | 137 kts | 63° |
| 2026-04-30 09:41 | 14.45234 | 120.91827 | 2573 ft | 136 kts | 63° |
| 2026-04-30 09:42 | 14.45704 | 120.92672 | 2332 ft | 135 kts | 62° |
| 2026-04-30 09:42 | 14.46174 | 120.93518 | 2078 ft | 134 kts | 63° |
| 2026-04-30 09:42 | 14.46642 | 120.94360 | 1842 ft | 137 kts | 63° |
| 2026-04-30 09:42 | 14.47115 | 120.95211 | 1468 ft | 140 kts | 63° |
| 2026-04-30 09:43 | 14.47610 | 120.96101 | 997 ft | 145 kts | 64° |
| 2026-04-30 09:43 | 14.48102 | 120.96985 | 764 ft | 137 kts | 64° |
| 2026-04-30 09:43 | 14.48576 | 120.97837 | 558 ft | 139 kts | 67° |
| 2026-04-30 09:43 | 14.49060 | 120.98707 | 375 ft | 141 kts | 65° |
| 2026-04-30 09:44 | 14.49546 | 120.99581 | 188 ft | 139 kts | 67° |
| 2026-04-30 09:44 | 14.50020 | 121.00418 | 62 ft | 125 kts | 63° |
| 2026-04-30 09:44 | 14.50387 | 121.01100 | 68 ft | 89 kts | 59° |
| 2026-04-30 09:44 | 14.50637 | 121.01545 | 65 ft | 57 kts | 61° |
| 2026-04-30 09:45 | 14.50814 | 121.01747 | 66 ft | 24 kts | 35° |
| 2026-04-30 09:45 | 14.50901 | 121.01760 | 68 ft | 10 kts | 297° |
| 2026-04-30 09:45 | 14.50882 | 121.01703 | 63 ft | 8 kts | 239° |
| 2026-04-30 09:45 | 14.50857 | 121.01660 | 66 ft | 6 kts | 239° |
| 2026-04-30 09:46 | 14.50838 | 121.01625 | 68 ft | 5 kts | 241° |
| 2026-04-30 09:46 | 14.50824 | 121.01597 | 64 ft | 4 kts | 241° |
| 2026-04-30 09:46 | 14.50788 | 121.01534 | 67 ft | 15 kts | 240° |
| 2026-04-30 09:46 | 14.50737 | 121.01441 | 68 ft | 15 kts | 240° |
| 2026-04-30 09:47 | 14.50692 | 121.01346 | 69 ft | 14 kts | 274° |
| 2026-04-30 09:47 | 14.50747 | 121.01277 | 69 ft | 12 kts | 323° |
| 2026-04-30 09:47 | 14.50796 | 121.01249 | 65 ft | 5 kts | 330° |
| 2026-04-30 09:47 | 14.50808 | 121.01241 | 65 ft | 0 kts | 330° |